createdAt,value
2019-02-25T00:01:39.536Z,37.60
2019-02-25T00:04:09.030Z,38.70
2019-02-25T00:06:38.370Z,38.80
2019-02-25T00:09:09.054Z,38.70
2019-02-25T00:11:36.910Z,38.60
2019-02-25T00:14:04.758Z,38.40
2019-02-25T00:16:33.008Z,39.30
2019-02-25T00:19:00.907Z,38.50
2019-02-25T00:21:28.965Z,39.00
2019-02-25T00:23:56.846Z,39.00
2019-02-25T00:26:24.958Z,37.90
2019-02-25T00:28:52.999Z,37.10
2019-02-25T00:31:21.052Z,38.00
2019-02-25T00:33:49.050Z,38.60
2019-02-25T00:36:17.525Z,37.80
2019-02-25T00:38:45.374Z,37.00
2019-02-25T00:41:13.537Z,37.50
2019-02-25T00:43:41.387Z,37.40
2019-02-25T00:46:09.926Z,37.00
2019-02-25T00:48:37.910Z,36.70
2019-02-25T00:51:05.961Z,36.40
2019-02-25T00:53:33.871Z,35.50
2019-02-25T00:56:01.726Z,36.00
2019-02-25T00:58:30.014Z,36.50
2019-02-25T01:00:58.000Z,36.00
2019-02-25T01:03:26.408Z,36.40
2019-02-25T01:05:54.370Z,34.90
2019-02-25T01:08:22.556Z,34.50
2019-02-25T01:10:50.542Z,33.40
2019-02-25T01:13:18.363Z,34.10
2019-02-25T01:15:46.665Z,33.90
2019-02-25T01:18:14.953Z,34.50
2019-02-25T01:20:42.914Z,34.50
2019-02-25T01:23:11.376Z,35.60
2019-02-25T01:25:39.345Z,34.90
2019-02-25T01:28:07.235Z,33.70
2019-02-25T01:30:35.544Z,33.50
2019-02-25T01:33:04.012Z,34.40
2019-02-25T01:35:31.998Z,35.40
2019-02-25T01:38:00.160Z,34.50
2019-02-25T01:40:28.642Z,34.10
2019-02-25T01:42:56.491Z,34.00
2019-02-25T01:45:24.684Z,34.40
2019-02-25T01:47:52.582Z,34.10
2019-02-25T01:50:20.938Z,33.70
2019-02-25T01:52:49.320Z,33.20
2019-02-25T01:55:17.426Z,33.90
2019-02-25T01:57:45.487Z,33.70
2019-02-25T02:00:14.526Z,33.60
2019-02-25T02:02:42.779Z,34.30
2019-02-25T02:05:10.885Z,35.30
2019-02-25T02:07:38.879Z,34.90
2019-02-25T02:10:08.310Z,34.40
2019-02-25T02:12:36.363Z,33.90
2019-02-25T02:15:05.564Z,34.00
2019-02-25T02:17:33.470Z,34.10
2019-02-25T02:20:01.752Z,34.40
2019-02-25T02:22:29.857Z,35.60
2019-02-25T02:24:57.775Z,36.40
2019-02-25T02:27:26.922Z,37.80
2019-02-25T02:29:54.973Z,39.20
2019-02-25T02:32:22.784Z,38.40
2019-02-25T02:34:51.146Z,36.40
2019-02-25T02:37:19.002Z,39.40
2019-02-25T02:39:46.872Z,39.50
2019-02-25T02:42:22.152Z,38.60
2019-02-25T02:44:55.381Z,39.90
2019-02-25T02:47:38.462Z,37.90
2019-02-25T02:50:09.340Z,37.90
2019-02-25T02:52:37.211Z,38.70
2019-02-25T02:55:05.804Z,38.70
2019-02-25T02:57:33.738Z,37.20
2019-02-25T03:00:01.868Z,36.10
2019-02-25T03:02:30.306Z,37.20
2019-02-25T03:04:58.704Z,37.80
2019-02-25T03:07:27.988Z,39.20
2019-02-25T03:09:56.197Z,39.00
2019-02-25T03:12:24.267Z,38.60
2019-02-25T03:14:52.472Z,40.00
2019-02-25T03:17:20.682Z,40.60
2019-02-25T03:19:48.587Z,40.40
2019-02-25T03:22:16.556Z,38.60
2019-02-25T03:24:44.459Z,40.30
2019-02-25T03:27:12.302Z,41.40
2019-02-25T03:29:40.578Z,39.20
2019-02-25T03:32:08.478Z,38.10
2019-02-25T03:34:36.799Z,37.60
2019-02-25T03:37:05.106Z,37.40
2019-02-25T03:39:33.019Z,38.80
2019-02-25T03:42:00.847Z,40.30
2019-02-25T03:44:29.099Z,39.40
2019-02-25T03:46:57.103Z,40.20
2019-02-25T03:49:25.362Z,41.50
2019-02-25T03:51:53.308Z,41.30
2019-02-25T03:54:21.333Z,42.00
2019-02-25T03:56:49.734Z,42.10
2019-02-25T03:59:17.590Z,43.30
2019-02-25T04:01:46.124Z,43.20
2019-02-25T04:04:14.326Z,43.20
2019-02-25T04:06:42.587Z,43.20
2019-02-25T04:09:10.440Z,43.30
2019-02-25T04:11:38.374Z,44.00
2019-02-25T04:14:06.446Z,43.70
2019-02-25T04:16:34.454Z,44.20
2019-02-25T04:19:02.587Z,44.40
2019-02-25T04:21:30.446Z,43.90
2019-02-25T04:23:58.589Z,42.80
2019-02-25T04:26:26.553Z,44.00
2019-02-25T04:28:54.580Z,44.20
2019-02-25T04:31:22.556Z,44.60
2019-02-25T04:33:50.559Z,45.20
2019-02-25T04:36:18.375Z,44.80
2019-02-25T04:38:46.316Z,42.20
2019-02-25T04:41:14.223Z,42.20
2019-02-25T04:43:42.175Z,41.30
2019-02-25T04:46:10.225Z,42.40
2019-02-25T04:48:38.092Z,43.00
2019-02-25T04:51:05.985Z,42.80
2019-02-25T04:53:33.832Z,42.80
2019-02-25T04:56:01.773Z,43.40
2019-02-25T04:58:29.771Z,42.90
2019-02-25T05:00:57.661Z,43.30
2019-02-25T05:03:25.535Z,42.00
2019-02-25T05:05:53.529Z,42.70
2019-02-25T05:08:21.379Z,42.40
2019-02-25T05:10:49.251Z,42.30
2019-02-25T05:13:17.175Z,42.80
2019-02-25T05:15:45.183Z,42.50
2019-02-25T05:18:13.137Z,43.10
2019-02-25T05:20:41.318Z,43.30
2019-02-25T05:23:09.245Z,41.90
2019-02-25T05:25:37.236Z,40.30
2019-02-25T05:28:05.172Z,40.80
2019-02-25T05:30:33.044Z,41.50
2019-02-25T05:33:00.996Z,41.90
2019-02-25T05:35:28.989Z,41.30
2019-02-25T05:37:56.932Z,40.20
2019-02-25T05:40:24.838Z,41.10
2019-02-25T05:42:52.758Z,40.60
2019-02-25T05:45:20.722Z,40.20
2019-02-25T05:47:48.664Z,40.20
2019-02-25T05:50:16.942Z,40.80
2019-02-25T05:52:44.836Z,42.60
2019-02-25T05:55:13.196Z,41.20
2019-02-25T05:57:41.033Z,41.40
2019-02-25T06:00:12.789Z,42.00
2019-02-25T06:02:41.063Z,42.80
2019-02-25T06:05:09.342Z,43.20
2019-02-25T06:07:37.383Z,42.80
2019-02-25T06:10:06.226Z,42.80
2019-02-25T06:12:34.093Z,43.00
2019-02-25T06:15:02.052Z,41.80
2019-02-25T06:17:30.047Z,41.70
2019-02-25T06:19:57.918Z,40.90
2019-02-25T06:22:27.399Z,41.20
2019-02-25T06:24:55.513Z,40.70
2019-02-25T06:27:30.414Z,43.10
2019-02-25T06:29:53.227Z,42.60
2019-02-25T06:32:21.186Z,42.00
2019-02-25T06:34:49.152Z,42.60
2019-02-25T06:37:17.094Z,43.70
2019-02-25T06:39:45.063Z,43.90
2019-02-25T06:42:13.398Z,43.40
2019-02-25T06:44:41.669Z,44.10
2019-02-25T06:47:09.542Z,43.70
2019-02-25T06:49:37.946Z,44.80
2019-02-25T06:52:05.963Z,45.00
2019-02-25T06:54:33.943Z,45.20
2019-02-25T06:57:01.841Z,44.60
2019-02-25T06:59:29.809Z,44.50
2019-02-25T07:01:57.695Z,44.80
2019-02-25T07:04:47.949Z,45.10
2019-02-25T07:07:19.723Z,44.60
2019-02-25T07:09:54.894Z,45.70
2019-02-25T07:12:36.181Z,46.10
2019-02-25T07:15:22.515Z,46.40
2019-02-25T07:18:15.947Z,46.40
2019-02-25T07:21:18.106Z,46.10
2019-02-25T07:24:07.990Z,45.60
2019-02-25T07:26:50.930Z,45.70
2019-02-25T07:29:44.099Z,46.20
2019-02-25T07:32:20.989Z,46.10
2019-02-25T07:35:04.328Z,46.30
2019-02-25T07:37:51.742Z,47.00
2019-02-25T07:40:39.467Z,48.50
2019-02-25T07:43:22.867Z,48.40
2019-02-25T07:46:18.079Z,49.00
2019-02-25T07:48:58.328Z,47.40
2019-02-25T07:51:48.490Z,48.30
2019-02-25T07:54:35.963Z,48.30
2019-02-25T07:57:18.869Z,48.00
2019-02-25T08:00:09.235Z,48.90
2019-02-25T08:02:53.110Z,48.30
2019-02-25T08:05:47.723Z,48.00
2019-02-25T08:08:31.121Z,48.00
2019-02-25T08:11:23.969Z,46.50
2019-02-25T08:14:14.199Z,46.30
2019-02-25T08:16:59.415Z,46.10
2019-02-25T08:19:49.309Z,45.10
2019-02-25T08:22:36.286Z,44.70
2019-02-25T08:25:24.270Z,44.10
2019-02-25T08:28:20.618Z,45.50
2019-02-25T08:31:16.841Z,45.40
2019-02-25T08:34:04.641Z,45.60
2019-02-25T08:37:27.227Z,44.60
2019-02-25T08:40:30.357Z,44.30
2019-02-25T08:43:10.476Z,46.80
2019-02-25T08:45:45.820Z,47.30
2019-02-25T08:48:24.507Z,46.30
2019-02-25T08:50:52.584Z,45.50
2019-02-25T08:53:20.561Z,47.00
2019-02-25T08:55:48.446Z,47.50
2019-02-25T08:58:16.489Z,46.50
2019-02-25T09:00:44.550Z,46.10
2019-02-25T09:03:12.546Z,45.10
2019-02-25T09:05:40.657Z,45.00
2019-02-25T09:08:08.543Z,44.20
2019-02-25T09:10:36.414Z,45.20
2019-02-25T09:13:04.448Z,43.90
2019-02-25T09:15:32.607Z,44.60
2019-02-25T09:17:59.322Z,45.60
2019-02-25T09:20:27.651Z,46.30
2019-02-25T09:22:55.593Z,45.30
2019-02-25T09:25:23.922Z,43.80
2019-02-25T09:27:51.930Z,42.20
2019-02-25T09:30:20.104Z,41.80
2019-02-25T09:32:47.955Z,41.80
2019-02-25T09:35:15.897Z,41.60
2019-02-25T09:37:43.827Z,41.90
2019-02-25T09:40:13.674Z,41.90
2019-02-25T09:42:41.950Z,43.00
2019-02-25T09:45:11.610Z,41.20
2019-02-25T09:47:39.762Z,42.80
2019-02-25T09:50:09.093Z,40.90
2019-02-25T09:52:37.035Z,42.90
2019-02-25T09:55:05.613Z,43.50
2019-02-25T09:57:33.536Z,45.40
2019-02-25T10:00:01.705Z,41.80
2019-02-25T10:02:30.053Z,40.60
2019-02-25T10:04:57.922Z,42.10
2019-02-25T10:07:25.981Z,43.30
2019-02-25T10:09:53.771Z,44.20
2019-02-25T10:12:21.763Z,43.50
2019-02-25T10:15:08.519Z,44.00
2019-02-25T10:17:36.479Z,41.10
2019-02-25T10:20:05.293Z,39.00
2019-02-25T10:22:33.235Z,40.00
2019-02-25T10:25:01.519Z,40.90
2019-02-25T10:27:29.575Z,41.60
2019-02-25T10:29:57.747Z,40.50
2019-02-25T10:32:27.946Z,41.50
2019-02-25T10:34:57.342Z,40.60
2019-02-25T10:37:25.274Z,40.20
2019-02-25T10:39:53.267Z,38.90
2019-02-25T10:42:21.118Z,39.30
2019-02-25T10:44:49.254Z,39.80
2019-02-25T10:47:19.344Z,40.10
2019-02-25T10:49:47.099Z,39.60
2019-02-25T10:52:15.481Z,39.40
2019-02-25T10:54:44.686Z,40.30
2019-02-25T10:57:16.493Z,42.10
2019-02-25T10:59:44.491Z,42.60
2019-02-25T11:02:13.711Z,40.20
2019-02-25T11:04:42.547Z,40.20
2019-02-25T11:07:10.519Z,39.90
2019-02-25T11:09:53.147Z,39.00
2019-02-25T11:12:22.097Z,38.60
2019-02-25T11:15:17.702Z,40.70
2019-02-25T11:17:45.950Z,40.10
2019-02-25T11:20:15.053Z,39.60
2019-02-25T11:22:44.073Z,40.30
2019-02-25T11:25:13.015Z,38.40
2019-02-25T11:27:41.001Z,37.90
2019-02-25T11:30:10.225Z,38.70
2019-02-25T11:32:39.411Z,38.00
2019-02-25T11:35:08.586Z,38.30
2019-02-25T11:37:37.986Z,37.80
2019-02-25T11:40:07.131Z,38.40
2019-02-25T11:42:35.155Z,37.60
2019-02-25T11:45:04.594Z,36.60
2019-02-25T11:47:32.627Z,36.60
2019-02-25T11:50:00.659Z,37.50
2019-02-25T11:52:29.858Z,37.30
2019-02-25T11:54:57.811Z,38.00
2019-02-25T11:57:25.686Z,36.80
2019-02-25T11:59:53.619Z,34.80
2019-02-25T12:02:25.604Z,36.60
2019-02-25T12:04:51.259Z,34.80
2019-02-25T12:07:19.786Z,35.40
2019-02-25T12:09:47.734Z,34.90
2019-02-25T12:12:15.731Z,35.80
2019-02-25T12:15:11.752Z,35.20
2019-02-25T12:17:39.558Z,35.50
2019-02-25T12:20:08.537Z,34.40
2019-02-25T12:22:36.478Z,34.30
2019-02-25T12:25:05.319Z,35.40
2019-02-25T12:27:33.262Z,34.10
2019-02-25T12:30:01.247Z,34.10
2019-02-25T12:32:30.015Z,33.40
2019-02-25T12:34:58.055Z,33.20
2019-02-25T12:37:27.490Z,33.00
2019-02-25T12:39:55.364Z,33.50
2019-02-25T12:42:23.382Z,34.00
2019-02-25T12:44:51.251Z,34.70
2019-02-25T12:47:19.350Z,33.00
2019-02-25T12:49:47.230Z,32.40
2019-02-25T12:52:15.203Z,32.00
2019-02-25T12:54:43.084Z,33.20
2019-02-25T12:57:10.991Z,32.90
2019-02-25T12:59:39.023Z,33.00
2019-02-25T13:02:07.034Z,32.60
2019-02-25T13:04:34.926Z,30.60
2019-02-25T13:07:02.879Z,31.80
2019-02-25T13:09:30.801Z,31.60
2019-02-25T13:11:58.759Z,31.10
2019-02-25T13:15:00.289Z,30.40
2019-02-25T13:17:28.371Z,31.80
2019-02-25T13:19:56.360Z,31.60
2019-02-25T13:22:24.438Z,31.90
2019-02-25T13:24:52.466Z,32.20
2019-02-25T13:27:20.371Z,32.90
2019-02-25T13:29:49.614Z,33.50
2019-02-25T13:32:17.746Z,32.30
2019-02-25T13:34:46.027Z,32.30
2019-02-25T13:37:13.935Z,32.50
2019-02-25T13:39:41.848Z,31.20
2019-02-25T13:42:09.715Z,30.50
2019-02-25T13:44:37.654Z,31.50
2019-02-25T13:47:05.971Z,30.80
2019-02-25T13:49:34.158Z,31.30
2019-02-25T13:52:02.058Z,29.50
2019-02-25T13:54:30.084Z,30.60
2019-02-25T13:56:58.056Z,30.30
2019-02-25T13:59:26.115Z,30.00
2019-02-25T14:01:53.984Z,30.20
2019-02-25T14:04:22.060Z,31.80
2019-02-25T14:06:50.277Z,32.00
2019-02-25T14:09:18.359Z,30.50
2019-02-25T14:11:46.278Z,30.20
2019-02-25T14:14:30.647Z,30.50
2019-02-25T14:16:58.158Z,31.80
2019-02-25T14:19:26.447Z,31.90
2019-02-25T14:21:56.036Z,31.70
2019-02-25T14:24:24.343Z,32.10
2019-02-25T14:26:54.489Z,32.30
2019-02-25T14:29:26.260Z,32.00
2019-02-25T14:31:51.900Z,32.80
2019-02-25T14:34:20.400Z,32.70
2019-02-25T14:36:50.354Z,32.00
2019-02-25T14:39:24.827Z,31.60
2019-02-25T14:41:54.392Z,32.20
2019-02-25T14:44:20.646Z,32.30
2019-02-25T14:46:48.747Z,32.10
2019-02-25T14:49:16.837Z,32.70
2019-02-25T14:51:45.059Z,33.30
2019-02-25T14:54:13.379Z,33.50
2019-02-25T14:56:42.989Z,33.30
2019-02-25T14:59:13.281Z,33.60
2019-02-25T15:01:41.400Z,32.80
2019-02-25T15:04:09.521Z,32.50
2019-02-25T15:06:37.535Z,32.90
2019-02-25T15:09:09.747Z,33.70
2019-02-25T15:11:36.377Z,33.60
2019-02-25T15:14:05.939Z,33.80
2019-02-25T15:16:34.383Z,33.30
2019-02-25T15:19:02.518Z,33.60
2019-02-25T15:21:30.608Z,33.90
2019-02-25T15:24:00.528Z,33.90
2019-02-25T15:26:30.247Z,33.50
2019-02-25T15:28:59.058Z,33.30
2019-02-25T15:31:28.079Z,33.70
2019-02-25T15:33:56.108Z,33.50
2019-02-25T15:36:24.724Z,33.20
2019-02-25T15:38:53.370Z,33.80
2019-02-25T15:41:21.328Z,33.70
2019-02-25T15:43:49.221Z,33.90
2019-02-25T15:46:19.629Z,34.30
2019-02-25T15:48:47.090Z,34.00
2019-02-25T15:51:15.446Z,33.60
2019-02-25T15:53:46.271Z,33.60
2019-02-25T15:56:13.445Z,33.80
2019-02-25T15:58:41.546Z,34.10
2019-02-25T16:01:12.382Z,33.80
2019-02-25T16:03:40.950Z,34.20
2019-02-25T16:06:10.707Z,33.90
2019-02-25T16:08:38.734Z,34.40
2019-02-25T16:11:11.670Z,34.00
2019-02-25T16:13:38.962Z,34.30
2019-02-25T16:16:22.955Z,34.80
2019-02-25T16:18:53.472Z,34.40
2019-02-25T16:21:21.016Z,34.90
2019-02-25T16:23:49.003Z,34.50
2019-02-25T16:26:18.244Z,34.80
2019-02-25T16:28:46.767Z,34.70
2019-02-25T16:31:14.953Z,34.60
2019-02-25T16:33:43.027Z,34.90
2019-02-25T16:36:11.154Z,34.90
2019-02-25T16:38:38.989Z,34.70
2019-02-25T16:41:08.474Z,35.00
2019-02-25T16:43:37.348Z,35.10
2019-02-25T16:46:06.432Z,34.90
2019-02-25T16:48:35.387Z,35.30
2019-02-25T16:51:06.851Z,35.30
2019-02-25T16:53:36.943Z,35.40
2019-02-25T16:56:05.668Z,35.40
2019-02-25T16:58:34.172Z,34.60
2019-02-25T17:01:05.356Z,34.60
2019-02-25T17:03:34.816Z,35.40
2019-02-25T17:06:05.063Z,35.10
2019-02-25T17:08:34.538Z,35.10
2019-02-25T17:11:02.571Z,35.30
2019-02-25T17:13:32.487Z,35.00
2019-02-25T17:16:31.907Z,35.00
2019-02-25T17:19:00.901Z,35.80
2019-02-25T17:21:29.253Z,35.70
2019-02-25T17:23:58.244Z,36.00
2019-02-25T17:26:26.675Z,35.50
2019-02-25T17:28:54.606Z,36.00
2019-02-25T17:31:22.523Z,36.20
2019-02-25T17:33:51.405Z,36.00
2019-02-25T17:36:20.321Z,36.20
2019-02-25T17:38:50.155Z,36.40
2019-02-25T17:41:18.462Z,36.20
2019-02-25T17:43:46.426Z,36.40
2019-02-25T17:46:14.598Z,36.70
2019-02-25T17:48:42.530Z,36.90
2019-02-25T17:51:10.691Z,37.20
2019-02-25T17:53:38.783Z,36.80
2019-02-25T17:56:07.231Z,36.90
2019-02-25T17:58:37.752Z,36.50
2019-02-25T18:01:07.744Z,36.90
2019-02-25T18:03:37.473Z,37.10
2019-02-25T18:06:07.510Z,36.70
2019-02-25T18:08:37.166Z,36.20
2019-02-25T18:11:09.819Z,36.40
2019-02-25T18:13:38.581Z,36.60
2019-02-25T18:16:42.570Z,36.80
2019-02-25T18:19:11.668Z,37.10
2019-02-25T18:21:43.783Z,37.40
2019-02-25T18:24:13.032Z,37.30
2019-02-25T18:26:41.934Z,37.70
2019-02-25T18:29:11.723Z,37.90
2019-02-25T18:31:41.413Z,37.90
2019-02-25T18:34:11.188Z,37.70
2019-02-25T18:36:40.692Z,37.80
2019-02-25T18:39:12.775Z,38.00
2019-02-25T18:41:41.619Z,38.20
2019-02-25T18:44:11.336Z,38.40
2019-02-25T18:46:41.718Z,38.40
2019-02-25T18:49:12.166Z,38.30
2019-02-25T18:51:41.953Z,38.30
2019-02-25T18:54:10.638Z,38.90
2019-02-25T18:56:40.394Z,38.50
2019-02-25T18:59:14.898Z,38.70
2019-02-25T19:01:39.047Z,39.10
2019-02-25T19:04:07.550Z,38.80
2019-02-25T19:06:37.133Z,39.20
2019-02-25T19:09:07.240Z,39.50
2019-02-25T19:11:36.794Z,40.10
2019-02-25T19:14:06.069Z,40.20
2019-02-25T19:16:47.325Z,40.40
2019-02-25T19:19:19.080Z,40.40
2019-02-25T19:21:48.360Z,40.40
2019-02-25T19:24:18.770Z,40.00
2019-02-25T19:26:48.989Z,39.80
2019-02-25T19:29:19.485Z,40.20
2019-02-25T19:31:48.929Z,40.30
2019-02-25T19:34:17.790Z,40.30
2019-02-25T19:36:46.681Z,39.90
2019-02-25T19:39:17.440Z,39.90
2019-02-25T19:41:51.363Z,40.10
2019-02-25T19:44:21.244Z,40.20
2019-02-25T19:46:51.248Z,39.40
2019-02-25T19:49:20.763Z,39.20
2019-02-25T19:51:50.730Z,39.30
2019-02-25T19:54:20.229Z,39.60
2019-02-25T19:56:51.489Z,39.80
2019-02-25T19:59:21.765Z,39.70
2019-02-25T20:01:50.704Z,39.70
2019-02-25T20:04:19.795Z,39.90
2019-02-25T20:06:48.931Z,39.30
2019-02-25T20:09:18.869Z,39.10
2019-02-25T20:11:47.080Z,39.00
2019-02-25T20:14:26.768Z,39.60
2019-02-25T20:16:54.707Z,39.60
2019-02-25T20:19:22.785Z,39.90
2019-02-25T20:21:52.439Z,39.80
2019-02-25T20:24:21.641Z,39.90
2019-02-25T20:26:52.566Z,39.80
2019-02-25T20:29:20.274Z,39.80
2019-02-25T20:31:50.175Z,39.40
2019-02-25T20:34:20.535Z,39.10
2019-02-25T20:36:48.264Z,39.00
2019-02-25T20:39:18.263Z,39.50
2019-02-25T20:41:48.334Z,39.20
2019-02-25T20:44:16.130Z,39.20
2019-02-25T20:46:48.591Z,39.50
2019-02-25T20:49:18.086Z,39.90
2019-02-25T20:51:45.570Z,40.20
2019-02-25T20:54:17.778Z,39.70
2019-02-25T20:56:44.592Z,39.40
2019-02-25T20:59:13.135Z,39.20
2019-02-25T21:01:44.049Z,39.20
2019-02-25T21:04:11.883Z,39.50
2019-02-25T21:06:41.866Z,39.40
2019-02-25T21:09:11.132Z,39.50
2019-02-25T21:11:39.271Z,39.60
2019-02-25T21:14:07.340Z,39.80
2019-02-25T21:16:48.188Z,39.50
2019-02-25T21:19:18.396Z,39.30
2019-02-25T21:21:46.124Z,39.50
2019-02-25T21:24:14.135Z,39.80
2019-02-25T21:27:26.066Z,39.90
2019-02-25T21:29:48.720Z,39.60
2019-02-25T21:32:17.472Z,38.80
2019-02-25T21:34:52.465Z,38.90
2019-02-25T21:37:16.553Z,39.40
2019-02-25T21:39:44.716Z,40.30
2019-02-25T21:42:14.989Z,39.70
2019-02-25T21:44:46.181Z,40.20
2019-02-25T21:47:12.867Z,40.90
2019-02-25T21:49:41.268Z,40.40
2019-02-25T21:52:10.862Z,40.60
2019-02-25T21:54:39.359Z,40.60
2019-02-25T21:57:08.038Z,41.30
2019-02-25T21:59:38.579Z,41.30
2019-02-25T22:02:06.685Z,41.40
2019-02-25T22:04:38.459Z,41.40
2019-02-25T22:07:04.448Z,41.80
2019-02-25T22:09:36.988Z,42.00
2019-02-25T22:12:02.211Z,41.40
2019-02-25T22:15:04.039Z,40.60
2019-02-25T22:17:32.008Z,40.40
2019-02-25T22:19:59.874Z,40.30
2019-02-25T22:22:31.084Z,40.40
2019-02-25T22:25:04.123Z,40.30
2019-02-25T22:27:30.396Z,40.80
2019-02-25T22:29:59.987Z,41.50
2019-02-25T22:32:31.320Z,41.90
2019-02-25T22:35:00.537Z,41.80
2019-02-25T22:37:31.245Z,42.60
2019-02-25T22:39:59.201Z,42.80
2019-02-25T22:42:29.668Z,42.30
2019-02-25T22:44:58.178Z,42.20
2019-02-25T22:47:26.388Z,42.10
2019-02-25T22:49:54.363Z,43.00
2019-02-25T22:52:26.336Z,42.90
2019-02-25T22:54:52.315Z,42.50
2019-02-25T22:57:21.407Z,42.80
2019-02-25T22:59:51.479Z,43.20
2019-02-25T23:02:19.624Z,42.30
2019-02-25T23:04:49.525Z,43.20
2019-02-25T23:07:20.187Z,43.60
2019-02-25T23:09:49.958Z,42.20
2019-02-25T23:12:19.768Z,42.40
2019-02-25T23:14:48.121Z,42.50
2019-02-25T23:17:17.444Z,43.90
2019-02-25T23:19:45.572Z,44.00
2019-02-25T23:22:13.442Z,44.60
2019-02-25T23:24:43.674Z,45.00
2019-02-25T23:27:11.281Z,45.10
2019-02-25T23:29:39.203Z,43.20
2019-02-25T23:32:07.040Z,45.40
2019-02-25T23:34:38.325Z,45.70
2019-02-25T23:37:04.739Z,44.80
2019-02-25T23:39:36.026Z,45.40
2019-02-25T23:42:04.705Z,46.30
2019-02-25T23:44:31.940Z,46.10
2019-02-25T23:47:01.901Z,45.70
2019-02-25T23:49:29.488Z,47.00
2019-02-25T23:51:57.430Z,45.60
2019-02-25T23:54:27.368Z,46.00
2019-02-25T23:56:57.095Z,46.10
2019-02-25T23:59:26.530Z,45.90
